createdAt,value
2023-03-06T00:00:18.403Z,5.34
2023-03-06T00:02:46.724Z,5.42
2023-03-06T00:05:15.345Z,5.38
2023-03-06T00:07:44.079Z,5.36
2023-03-06T00:10:16.468Z,5.40
2023-03-06T00:12:44.420Z,5.48
2023-03-06T00:15:13.497Z,5.17
2023-03-06T00:17:41.840Z,5.26
2023-03-06T00:20:11.792Z,4.92
2023-03-06T00:22:40.356Z,4.91
2023-03-06T00:25:09.558Z,4.76
2023-03-06T00:27:38.756Z,4.98
2023-03-06T00:30:08.239Z,5.09
2023-03-06T00:32:36.092Z,5.24
2023-03-06T00:35:04.233Z,5.09
2023-03-06T00:37:32.228Z,5.19
2023-03-06T00:40:00.386Z,5.18
2023-03-06T00:42:28.344Z,5.23
2023-03-06T00:44:57.578Z,5.17
2023-03-06T00:47:25.480Z,5.31
2023-03-06T00:49:53.350Z,5.17
2023-03-06T00:52:21.278Z,5.11
2023-03-06T00:54:49.166Z,5.11
2023-03-06T00:57:17.045Z,5.07
2023-03-06T00:59:46.022Z,5.22
2023-03-06T01:02:15.743Z,5.11
2023-03-06T01:04:43.854Z,5.15
2023-03-06T01:07:12.477Z,5.09
2023-03-06T01:09:40.403Z,5.10
2023-03-06T01:12:09.087Z,5.12
2023-03-06T01:14:37.174Z,5.22
2023-03-06T01:17:05.161Z,4.99
2023-03-06T01:19:34.439Z,5.07
2023-03-06T01:22:02.363Z,5.17
2023-03-06T01:24:30.301Z,5.14
2023-03-06T01:26:58.268Z,5.02
2023-03-06T01:29:26.488Z,4.89
2023-03-06T01:31:54.642Z,5.12
2023-03-06T01:34:22.571Z,4.95
2023-03-06T01:36:51.844Z,5.19
2023-03-06T01:39:19.834Z,4.97
2023-03-06T01:41:47.811Z,5.13
2023-03-06T01:44:15.685Z,5.12
2023-03-06T01:46:43.994Z,5.10
2023-03-06T01:49:19.678Z,5.22
2023-03-06T01:51:53.631Z,5.23
2023-03-06T01:54:24.883Z,5.29
2023-03-06T01:56:57.814Z,5.22
2023-03-06T01:59:27.608Z,5.32
2023-03-06T02:01:57.122Z,5.26
2023-03-06T02:04:25.719Z,5.19
2023-03-06T02:06:56.535Z,5.29
2023-03-06T02:09:24.465Z,5.40
2023-03-06T02:11:55.200Z,5.30
2023-03-06T02:14:23.466Z,5.25
2023-03-06T02:16:52.445Z,5.35
2023-03-06T02:19:34.283Z,5.20
2023-03-06T02:22:04.364Z,5.27
2023-03-06T02:24:40.980Z,5.21
2023-03-06T02:27:14.309Z,5.26
2023-03-06T02:29:43.419Z,5.07
2023-03-06T02:32:11.394Z,4.94
2023-03-06T02:34:52.662Z,5.14
2023-03-06T02:37:21.825Z,5.17
2023-03-06T02:39:53.966Z,5.35
2023-03-06T02:42:28.852Z,5.42
2023-03-06T02:45:00.123Z,5.55
2023-03-06T02:47:28.044Z,5.29
2023-03-06T02:49:55.991Z,5.42
2023-03-06T02:52:24.003Z,5.33
2023-03-06T02:54:51.899Z,5.55
2023-03-06T02:57:19.755Z,5.44
2023-03-06T02:59:49.114Z,5.56
2023-03-06T03:02:17.366Z,5.50
2023-03-06T03:04:45.703Z,5.49
2023-03-06T03:07:13.654Z,5.47
2023-03-06T03:09:42.058Z,5.56
2023-03-06T03:12:10.840Z,5.62
2023-03-06T03:14:39.649Z,5.71
2023-03-06T03:17:09.033Z,5.82
2023-03-06T03:19:36.910Z,5.69
2023-03-06T03:22:04.957Z,5.61
2023-03-06T03:24:32.962Z,5.52
2023-03-06T03:27:01.984Z,5.75
2023-03-06T03:29:30.121Z,5.85
2023-03-06T03:31:58.147Z,5.94
2023-03-06T03:34:29.389Z,5.70
2023-03-06T03:36:58.751Z,5.43
2023-03-06T03:39:26.776Z,5.71
2023-03-06T03:41:54.736Z,5.81
2023-03-06T03:44:23.709Z,5.61
2023-03-06T03:46:51.958Z,5.96
2023-03-06T03:49:23.092Z,5.95
2023-03-06T03:51:53.120Z,5.69
2023-03-06T03:54:22.396Z,5.92
2023-03-06T03:56:51.803Z,5.56
2023-03-06T03:59:25.455Z,5.77
2023-03-06T04:02:25.683Z,5.99
2023-03-06T04:05:05.403Z,6.02
2023-03-06T04:07:34.989Z,5.90
2023-03-06T04:10:03.112Z,5.76
2023-03-06T04:12:32.029Z,5.71
2023-03-06T04:15:00.240Z,5.85
2023-03-06T04:17:29.209Z,5.91
2023-03-06T04:19:57.729Z,5.60
2023-03-06T04:22:25.700Z,5.63
2023-03-06T04:24:55.215Z,5.71
2023-03-06T04:27:23.455Z,5.49
2023-03-06T04:29:51.611Z,5.31
2023-03-06T04:32:21.426Z,5.46
2023-03-06T04:34:49.833Z,5.75
2023-03-06T04:37:21.432Z,5.56
2023-03-06T04:39:50.186Z,5.57
2023-03-06T04:42:19.780Z,5.64
2023-03-06T04:44:47.824Z,5.63
2023-03-06T04:47:16.988Z,5.52
2023-03-06T04:49:46.636Z,5.68
2023-03-06T04:52:14.592Z,5.42
2023-03-06T04:54:42.874Z,5.72
2023-03-06T04:57:12.876Z,5.39
2023-03-06T04:59:42.295Z,5.62
2023-03-06T05:02:10.242Z,5.51
2023-03-06T05:04:38.169Z,5.76
2023-03-06T05:07:06.152Z,5.60
2023-03-06T05:09:35.855Z,5.46
2023-03-06T05:12:04.619Z,5.60
2023-03-06T05:14:32.556Z,5.65
2023-03-06T05:17:02.139Z,5.58
2023-03-06T05:19:30.025Z,5.50
2023-03-06T05:21:57.966Z,5.56
2023-03-06T05:24:25.799Z,5.20
2023-03-06T05:26:53.742Z,5.37
2023-03-06T05:29:21.835Z,5.30
2023-03-06T05:31:49.846Z,5.60
2023-03-06T05:34:19.130Z,5.71
2023-03-06T05:36:47.371Z,5.63
2023-03-06T05:39:15.310Z,5.65
2023-03-06T05:41:43.181Z,5.81
2023-03-06T05:44:11.050Z,5.78
2023-03-06T05:46:38.989Z,5.68
2023-03-06T05:49:06.813Z,5.48
2023-03-06T05:51:36.202Z,5.48
2023-03-06T05:54:04.064Z,5.67
2023-03-06T05:56:31.963Z,5.70
2023-03-06T05:58:59.820Z,5.57
2023-03-06T06:01:28.504Z,5.70
2023-03-06T06:03:56.373Z,5.65
2023-03-06T06:06:24.281Z,5.71
2023-03-06T06:08:53.838Z,5.50
2023-03-06T06:11:21.854Z,5.45
2023-03-06T06:13:50.123Z,5.67
2023-03-06T06:16:19.139Z,5.64
2023-03-06T06:18:47.535Z,5.61
2023-03-06T06:21:15.962Z,5.57
2023-03-06T06:23:44.328Z,5.51
2023-03-06T06:26:13.571Z,5.57
2023-03-06T06:28:41.469Z,5.47
2023-03-06T06:31:10.571Z,5.57
2023-03-06T06:33:38.557Z,5.60
2023-03-06T06:36:06.899Z,5.33
2023-03-06T06:38:35.178Z,5.18
2023-03-06T06:41:33.496Z,5.26
2023-03-06T06:43:55.481Z,5.24
2023-03-06T06:46:59.257Z,5.33
2023-03-06T06:49:12.652Z,5.12
2023-03-06T06:51:41.570Z,5.20
2023-03-06T06:54:09.725Z,5.40
2023-03-06T06:56:37.569Z,5.41
2023-03-06T06:59:16.182Z,5.42
2023-03-06T07:01:45.264Z,5.51
2023-03-06T07:04:13.761Z,5.45
2023-03-06T07:06:41.955Z,5.55
2023-03-06T07:09:09.852Z,5.32
2023-03-06T07:11:38.528Z,5.57
2023-03-06T07:14:07.754Z,5.35
2023-03-06T07:16:35.717Z,5.50
2023-03-06T07:19:03.688Z,5.60
2023-03-06T07:21:31.594Z,5.45
2023-03-06T07:23:59.748Z,5.59
2023-03-06T07:26:28.915Z,5.45
2023-03-06T07:28:56.772Z,5.60
2023-03-06T07:31:28.534Z,5.30
2023-03-06T07:33:56.693Z,5.64
2023-03-06T07:36:24.988Z,5.72
2023-03-06T07:38:52.887Z,5.49
2023-03-06T07:41:22.655Z,5.82
2023-03-06T07:43:51.100Z,5.73
2023-03-06T07:46:19.437Z,5.70
2023-03-06T07:48:48.753Z,5.77
2023-03-06T07:51:19.101Z,5.77
2023-03-06T07:53:47.795Z,5.76
2023-03-06T07:56:15.973Z,5.74
2023-03-06T07:58:45.812Z,5.91
2023-03-06T08:01:15.602Z,5.81
2023-03-06T08:03:43.671Z,5.78
2023-03-06T08:06:15.073Z,5.92
2023-03-06T08:08:45.609Z,5.81
2023-03-06T08:11:15.246Z,5.81
2023-03-06T08:13:43.785Z,5.78
2023-03-06T08:16:12.227Z,5.85
2023-03-06T08:18:40.667Z,6.00
2023-03-06T08:21:11.231Z,5.86
2023-03-06T08:23:41.292Z,6.03
2023-03-06T08:26:13.291Z,5.92
2023-03-06T08:28:41.678Z,5.98
2023-03-06T08:31:11.048Z,6.26
2023-03-06T08:33:39.766Z,6.34
2023-03-06T08:36:08.150Z,6.30
2023-03-06T08:38:36.088Z,6.22
2023-03-06T08:41:05.697Z,6.21
2023-03-06T08:43:34.842Z,5.97
2023-03-06T08:46:03.373Z,6.26
2023-03-06T08:48:31.484Z,6.29
2023-03-06T08:50:59.417Z,5.88
2023-03-06T08:53:41.672Z,6.10
2023-03-06T08:56:17.419Z,6.12
2023-03-06T08:58:45.606Z,6.27
2023-03-06T09:01:17.666Z,6.34
2023-03-06T09:03:45.749Z,6.20
2023-03-06T09:06:14.875Z,6.32
2023-03-06T09:08:44.485Z,6.32
2023-03-06T09:11:14.463Z,6.19
2023-03-06T09:13:44.828Z,6.23
2023-03-06T09:16:13.635Z,6.18
2023-03-06T09:18:41.694Z,6.29
2023-03-06T09:21:11.001Z,6.23
2023-03-06T09:23:40.048Z,6.24
2023-03-06T09:26:08.592Z,6.20
2023-03-06T09:28:38.919Z,6.36
2023-03-06T09:31:11.041Z,6.28
2023-03-06T09:33:39.251Z,6.39
2023-03-06T09:36:08.339Z,6.27
2023-03-06T09:38:36.208Z,6.10
2023-03-06T09:41:10.056Z,6.38
2023-03-06T09:43:40.338Z,6.41
2023-03-06T09:46:18.073Z,6.40
2023-03-06T09:48:56.725Z,6.40
2023-03-06T09:51:31.528Z,6.51
2023-03-06T09:54:06.795Z,6.33
2023-03-06T09:56:36.802Z,6.33
2023-03-06T09:59:13.102Z,6.35
2023-03-06T10:01:46.047Z,6.49
2023-03-06T10:04:32.547Z,6.48
2023-03-06T10:07:04.841Z,6.57
2023-03-06T10:09:41.259Z,6.51
2023-03-06T10:12:24.313Z,6.45
2023-03-06T10:15:03.601Z,6.62
2023-03-06T10:17:37.681Z,6.35
2023-03-06T10:20:17.215Z,6.37
2023-03-06T10:23:00.831Z,6.28
2023-03-06T10:25:37.964Z,6.32
2023-03-06T10:28:15.746Z,6.36
2023-03-06T10:30:50.487Z,6.27
2023-03-06T10:33:24.431Z,6.29
2023-03-06T10:35:54.842Z,5.97
2023-03-06T10:38:25.273Z,5.87
2023-03-06T10:41:06.508Z,6.04
2023-03-06T10:43:36.394Z,6.11
2023-03-06T10:46:06.401Z,6.29
2023-03-06T10:48:38.798Z,6.18
2023-03-06T10:51:19.083Z,6.30
2023-03-06T10:53:53.758Z,6.53
2023-03-06T10:56:30.636Z,6.58
2023-03-06T10:59:10.096Z,6.72
2023-03-06T11:01:38.666Z,6.80
2023-03-06T11:04:23.901Z,6.88
2023-03-06T11:07:13.717Z,6.54
2023-03-06T11:09:41.989Z,6.56
2023-03-06T11:12:26.608Z,6.66
2023-03-06T11:15:18.363Z,6.63
2023-03-06T11:18:08.595Z,6.87
2023-03-06T11:20:53.032Z,6.72
2023-03-06T11:23:27.775Z,6.70
2023-03-06T11:25:58.322Z,6.75
2023-03-06T11:28:29.879Z,6.80
2023-03-06T11:31:04.001Z,7.02
2023-03-06T11:33:38.313Z,6.94
2023-03-06T11:36:14.521Z,7.15
2023-03-06T11:38:49.959Z,6.98
2023-03-06T11:41:26.114Z,7.01
2023-03-06T11:44:00.705Z,7.11
2023-03-06T11:46:32.951Z,7.09
2023-03-06T11:49:14.845Z,7.15
2023-03-06T11:51:50.281Z,6.99
2023-03-06T11:54:18.431Z,7.00
2023-03-06T11:56:55.462Z,7.02
2023-03-06T11:59:57.179Z,7.19
2023-03-06T12:02:40.375Z,7.05
2023-03-06T12:05:24.279Z,6.87
2023-03-06T12:08:02.683Z,7.17
2023-03-06T12:10:35.104Z,7.19
2023-03-06T12:13:20.555Z,7.31
2023-03-06T12:16:10.189Z,7.64
2023-03-06T12:18:46.845Z,7.64
2023-03-06T12:21:25.193Z,7.79
2023-03-06T12:24:17.552Z,7.12
2023-03-06T12:27:06.482Z,7.63
2023-03-06T12:30:00.907Z,7.87
2023-03-06T12:32:40.861Z,7.48
2023-03-06T12:35:29.802Z,7.56
2023-03-06T12:38:07.709Z,7.77
2023-03-06T12:40:54.750Z,7.81
2023-03-06T12:43:48.545Z,7.61
2023-03-06T12:46:17.218Z,8.08
2023-03-06T12:48:49.497Z,7.90
2023-03-06T12:51:20.933Z,7.67
2023-03-06T12:53:51.226Z,7.88
2023-03-06T12:56:21.842Z,7.89
2023-03-06T12:58:52.034Z,8.02
2023-03-06T13:01:39.702Z,8.01
2023-03-06T13:04:30.094Z,8.31
2023-03-06T13:07:16.928Z,8.14
2023-03-06T13:10:01.591Z,8.25
2023-03-06T13:12:50.684Z,8.20
2023-03-06T13:15:38.193Z,8.47
2023-03-06T13:18:43.757Z,8.40
2023-03-06T13:21:47.377Z,7.92
2023-03-06T13:24:18.567Z,8.00
2023-03-06T13:26:58.603Z,8.06
2023-03-06T13:30:01.959Z,8.07
2023-03-06T13:32:33.912Z,7.95
2023-03-06T13:35:02.201Z,7.60
2023-03-06T13:38:00.856Z,6.98
2023-03-06T13:40:34.232Z,7.14
2023-03-06T13:43:19.775Z,7.41
2023-03-06T13:45:49.148Z,7.50
2023-03-06T13:48:44.790Z,7.64
2023-03-06T13:51:24.984Z,8.03
2023-03-06T13:54:21.590Z,7.95
2023-03-06T13:57:15.543Z,7.90
2023-03-06T14:00:21.968Z,7.53
2023-03-06T14:03:28.309Z,7.53
2023-03-06T14:05:58.918Z,7.77
2023-03-06T14:08:29.769Z,8.03
2023-03-06T14:11:02.762Z,8.10
2023-03-06T14:13:46.699Z,7.63
2023-03-06T14:16:20.430Z,7.74
2023-03-06T14:18:50.524Z,7.42
2023-03-06T14:21:30.758Z,7.64
2023-03-06T14:24:00.677Z,7.63
2023-03-06T14:26:32.844Z,7.74
2023-03-06T14:29:02.444Z,7.60
2023-03-06T14:31:33.914Z,7.71
2023-03-06T14:34:04.888Z,7.72
2023-03-06T14:36:36.925Z,7.55
2023-03-06T14:39:09.831Z,7.51
2023-03-06T14:41:38.125Z,7.69
2023-03-06T14:44:10.509Z,7.90
2023-03-06T14:46:39.049Z,8.01
2023-03-06T14:49:08.251Z,7.89
2023-03-06T14:51:42.773Z,7.64
2023-03-06T14:54:17.118Z,7.37
2023-03-06T14:56:47.292Z,7.77
2023-03-06T14:59:19.444Z,7.76
2023-03-06T15:01:51.168Z,7.84
2023-03-06T15:04:27.218Z,7.73
2023-03-06T15:06:58.198Z,7.73
2023-03-06T15:09:29.780Z,7.34
2023-03-06T15:12:01.252Z,7.15
2023-03-06T15:14:35.455Z,7.50
2023-03-06T15:17:23.618Z,7.64
2023-03-06T15:19:54.627Z,7.49
2023-03-06T15:22:37.728Z,7.69
2023-03-06T15:25:20.869Z,7.80
2023-03-06T15:27:50.840Z,7.70
2023-03-06T15:30:28.706Z,7.09
2023-03-06T15:33:24.110Z,7.25
2023-03-06T15:35:57.293Z,7.30
2023-03-06T15:38:33.793Z,7.12
2023-03-06T15:41:03.415Z,7.31
2023-03-06T15:43:35.436Z,7.34
2023-03-06T15:46:05.443Z,6.93
2023-03-06T15:48:33.924Z,7.09
2023-03-06T15:51:02.640Z,7.15
2023-03-06T15:53:32.119Z,7.25
2023-03-06T15:56:00.461Z,7.19
2023-03-06T15:58:35.327Z,7.02
2023-03-06T16:01:03.739Z,7.06
2023-03-06T16:03:32.372Z,7.08
2023-03-06T16:06:00.488Z,7.10
2023-03-06T16:08:28.885Z,6.88
2023-03-06T16:10:59.108Z,6.80
2023-03-06T16:13:28.936Z,6.70
2023-03-06T16:15:57.384Z,6.48
2023-03-06T16:18:25.781Z,6.64
2023-03-06T16:20:53.706Z,6.48
2023-03-06T16:23:21.562Z,6.63
2023-03-06T16:25:50.697Z,6.60
2023-03-06T16:28:20.439Z,6.48
2023-03-06T16:30:48.338Z,6.49
2023-03-06T16:33:16.367Z,6.46
2023-03-06T16:35:46.590Z,6.50
2023-03-06T16:38:15.718Z,6.48
2023-03-06T16:40:43.992Z,6.27
2023-03-06T16:43:13.558Z,6.43
2023-03-06T16:45:43.785Z,6.36
2023-03-06T16:48:15.973Z,6.33
2023-03-06T16:50:44.157Z,6.14
2023-03-06T16:53:12.034Z,5.96
2023-03-06T16:55:39.925Z,5.93
2023-03-06T16:58:08.650Z,6.06
2023-03-06T17:00:36.534Z,5.97
2023-03-06T17:03:05.884Z,6.02
2023-03-06T17:05:34.371Z,6.03
2023-03-06T17:08:02.338Z,5.82
2023-03-06T17:10:30.198Z,5.82
2023-03-06T17:12:58.405Z,5.76
2023-03-06T17:15:26.446Z,5.87
2023-03-06T17:17:54.381Z,5.86
2023-03-06T17:20:23.891Z,5.73
2023-03-06T17:22:51.903Z,5.83
2023-03-06T17:25:19.937Z,5.64
2023-03-06T17:27:47.807Z,5.88
2023-03-06T17:30:16.414Z,5.60
2023-03-06T17:32:44.365Z,5.55
2023-03-06T17:35:12.236Z,5.59
2023-03-06T17:37:41.452Z,5.64
2023-03-06T17:40:11.989Z,5.60
2023-03-06T17:42:39.902Z,5.56
2023-03-06T17:45:11.124Z,5.48
2023-03-06T17:47:39.039Z,5.53
2023-03-06T17:50:07.277Z,5.52
2023-03-06T17:52:35.344Z,5.30
2023-03-06T17:55:04.909Z,5.30
2023-03-06T17:57:33.470Z,5.43
2023-03-06T18:00:01.441Z,5.41
2023-03-06T18:02:29.344Z,5.31
2023-03-06T18:04:58.186Z,5.35
2023-03-06T18:07:26.603Z,5.27
2023-03-06T18:09:54.501Z,5.10
2023-03-06T18:12:23.805Z,5.20
2023-03-06T18:14:51.810Z,5.27
2023-03-06T18:17:19.743Z,5.16
2023-03-06T18:19:47.822Z,5.13
2023-03-06T18:22:15.848Z,5.14
2023-03-06T18:24:43.763Z,5.12
2023-03-06T18:27:11.661Z,5.03
2023-03-06T18:29:40.957Z,5.07
2023-03-06T18:32:10.691Z,5.03
2023-03-06T18:34:38.934Z,5.01
2023-03-06T18:37:06.983Z,4.97
2023-03-06T18:39:34.931Z,5.03
2023-03-06T18:42:03.157Z,4.91
2023-03-06T18:44:31.057Z,4.83
2023-03-06T18:47:00.277Z,4.88
2023-03-06T18:49:28.273Z,4.83
2023-03-06T18:51:56.150Z,4.69
2023-03-06T18:54:25.303Z,4.77
2023-03-06T18:56:53.470Z,4.62
2023-03-06T18:59:21.403Z,4.70
2023-03-06T19:01:49.876Z,4.71
2023-03-06T19:04:19.183Z,4.68
2023-03-06T19:06:47.649Z,4.59
2023-03-06T19:09:15.569Z,4.43
2023-03-06T19:11:45.585Z,4.55
2023-03-06T19:14:13.598Z,4.37
2023-03-06T19:16:41.756Z,4.27
2023-03-06T19:19:09.623Z,4.46
2023-03-06T19:21:38.859Z,4.47
2023-03-06T19:24:13.235Z,4.57
2023-03-06T19:26:41.987Z,4.29
2023-03-06T19:29:10.108Z,4.51
2023-03-06T19:31:38.028Z,4.53
2023-03-06T19:34:05.919Z,4.53
2023-03-06T19:36:34.299Z,4.45
2023-03-06T19:39:06.347Z,4.37
2023-03-06T19:41:34.824Z,4.31
2023-03-06T19:44:04.976Z,4.31
2023-03-06T19:46:33.482Z,4.40
2023-03-06T19:49:02.959Z,4.35
2023-03-06T19:51:31.119Z,4.21
2023-03-06T19:53:59.209Z,4.29
2023-03-06T19:56:31.863Z,4.29
2023-03-06T19:58:59.758Z,4.30
2023-03-06T20:01:29.112Z,4.35
2023-03-06T20:03:59.166Z,4.29
2023-03-06T20:06:29.201Z,4.44
2023-03-06T20:08:57.988Z,4.26
2023-03-06T20:11:29.838Z,4.20
2023-03-06T20:13:58.462Z,4.25
2023-03-06T20:16:27.903Z,4.25
2023-03-06T20:18:58.042Z,4.24
2023-03-06T20:21:26.613Z,4.28
2023-03-06T20:23:56.923Z,4.29
2023-03-06T20:26:25.805Z,4.29
2023-03-06T20:28:55.401Z,4.31
2023-03-06T20:31:25.810Z,4.21
2023-03-06T20:33:55.651Z,4.41
2023-03-06T20:36:27.191Z,4.41
2023-03-06T20:38:55.390Z,4.31
2023-03-06T20:41:25.257Z,4.33
2023-03-06T20:43:53.702Z,4.24
2023-03-06T20:46:24.217Z,3.94
2023-03-06T20:48:54.102Z,4.15
2023-03-06T20:51:24.160Z,3.64
2023-03-06T20:53:54.090Z,3.82
2023-03-06T20:56:25.464Z,3.92
2023-03-06T20:58:53.921Z,3.78
2023-03-06T21:01:25.086Z,3.71
2023-03-06T21:03:53.202Z,3.79
2023-03-06T21:06:21.954Z,3.79
2023-03-06T21:08:50.208Z,3.83
2023-03-06T21:11:19.135Z,3.78
2023-03-06T21:13:47.272Z,3.86
2023-03-06T21:16:17.241Z,3.76
2023-03-06T21:18:47.139Z,3.79
2023-03-06T21:21:18.347Z,3.82
2023-03-06T21:23:46.803Z,3.59
2023-03-06T21:26:16.493Z,3.44
2023-03-06T21:28:44.905Z,3.63
2023-03-06T21:31:15.547Z,3.80
2023-03-06T21:33:44.275Z,3.61
2023-03-06T21:36:13.766Z,3.65
2023-03-06T21:38:41.647Z,3.61
2023-03-06T21:41:11.390Z,3.57
2023-03-06T21:43:39.973Z,3.60
2023-03-06T21:46:08.263Z,3.46
2023-03-06T21:48:36.861Z,3.51
2023-03-06T21:51:09.577Z,3.47
2023-03-06T21:53:40.977Z,3.63
2023-03-06T21:56:09.309Z,3.61
2023-03-06T21:58:37.195Z,3.56
2023-03-06T22:01:10.795Z,3.75
2023-03-06T22:03:39.231Z,3.66
2023-03-06T22:06:11.381Z,3.49
2023-03-06T22:08:41.022Z,3.54
2023-03-06T22:11:10.790Z,3.60
2023-03-06T22:13:39.261Z,3.56
2023-03-06T22:16:08.202Z,3.45
2023-03-06T22:18:37.172Z,3.56
2023-03-06T22:21:08.897Z,3.54
2023-03-06T22:23:37.245Z,3.41
2023-03-06T22:26:08.136Z,3.40
2023-03-06T22:28:36.436Z,3.34
2023-03-06T22:31:06.115Z,3.47
2023-03-06T22:33:34.060Z,3.34
2023-03-06T22:36:06.104Z,3.58
2023-03-06T22:38:34.774Z,3.44
2023-03-06T22:41:02.876Z,3.37
2023-03-06T22:43:32.852Z,3.38
2023-03-06T22:46:02.238Z,3.13
2023-03-06T22:48:30.303Z,3.44
2023-03-06T22:51:02.969Z,3.41
2023-03-06T22:53:30.932Z,3.36
2023-03-06T22:56:00.145Z,3.40
2023-03-06T22:58:34.196Z,3.34
2023-03-06T23:01:07.586Z,3.25
2023-03-06T23:03:37.019Z,3.35
2023-03-06T23:06:08.029Z,3.29
2023-03-06T23:08:36.092Z,3.21
2023-03-06T23:11:07.887Z,3.28
2023-03-06T23:13:54.688Z,3.28
2023-03-06T23:16:42.753Z,3.19
2023-03-06T23:19:29.244Z,2.90
2023-03-06T23:22:15.482Z,3.12
2023-03-06T23:25:01.731Z,3.23
2023-03-06T23:27:29.618Z,3.03
2023-03-06T23:29:58.941Z,3.43
2023-03-06T23:32:28.497Z,3.61
2023-03-06T23:34:56.633Z,3.51
2023-03-06T23:37:24.776Z,3.32
2023-03-06T23:39:52.851Z,3.48
2023-03-06T23:42:20.956Z,3.53
2023-03-06T23:44:49.148Z,3.25
2023-03-06T23:47:19.984Z,3.10
2023-03-06T23:49:49.260Z,3.35
2023-03-06T23:52:17.226Z,3.12
2023-03-06T23:54:45.100Z,3.08
2023-03-06T23:57:12.940Z,3.06
2023-03-06T23:59:40.848Z,3.06
